createdAt,value
2019-02-05T00:01:40.070Z,-5.60
2019-02-05T00:04:13.029Z,-5.67
2019-02-05T00:06:45.830Z,-5.70
2019-02-05T00:09:18.762Z,-5.66
2019-02-05T00:11:51.578Z,-5.64
2019-02-05T00:14:25.004Z,-6.02
2019-02-05T00:16:57.852Z,-6.10
2019-02-05T00:19:30.582Z,-5.98
2019-02-05T00:22:03.371Z,-5.92
2019-02-05T00:24:36.812Z,-5.73
2019-02-05T00:27:09.643Z,-5.63
2019-02-05T00:29:43.222Z,-5.59
2019-02-05T00:32:16.065Z,-5.69
2019-02-05T00:34:48.911Z,-5.98
2019-02-05T00:37:21.431Z,-6.08
2019-02-05T00:39:54.298Z,-5.94
2019-02-05T00:42:26.981Z,-5.85
2019-02-05T00:44:59.840Z,-5.84
2019-02-05T00:47:32.540Z,-5.83
2019-02-05T00:50:06.909Z,-5.91
2019-02-05T00:52:39.874Z,-5.93
2019-02-05T00:55:13.550Z,-5.88
2019-02-05T00:57:46.429Z,-5.86
2019-02-05T01:00:24.505Z,-5.78
2019-02-05T01:03:02.427Z,-5.73
2019-02-05T01:05:35.372Z,-5.90
2019-02-05T01:08:08.552Z,-6.12
2019-02-05T01:10:41.620Z,-6.28
2019-02-05T01:13:14.352Z,-6.41
2019-02-05T01:15:49.247Z,-6.36
2019-02-05T01:18:21.949Z,-6.42
2019-02-05T01:20:54.772Z,-6.44
2019-02-05T01:23:27.565Z,-6.38
2019-02-05T01:26:00.223Z,-6.40
2019-02-05T01:28:33.036Z,-6.43
2019-02-05T01:31:05.705Z,-6.58
2019-02-05T01:33:38.686Z,-6.69
2019-02-05T01:36:11.740Z,-7.08
2019-02-05T01:38:44.437Z,-7.27
2019-02-05T01:41:17.286Z,-7.25
2019-02-05T01:43:50.097Z,-7.09
2019-02-05T01:46:22.914Z,-7.04
2019-02-05T01:48:55.625Z,-7.00
2019-02-05T01:51:28.471Z,-7.36
2019-02-05T01:54:01.999Z,-7.67
2019-02-05T01:56:40.907Z,-7.76
2019-02-05T01:59:09.450Z,-7.93
2019-02-05T02:01:42.162Z,-7.88
2019-02-05T02:04:14.849Z,-7.74
2019-02-05T02:06:47.704Z,-7.48
2019-02-05T02:09:20.463Z,-7.61
2019-02-05T02:11:54.020Z,-8.10
2019-02-05T02:14:26.721Z,-8.13
2019-02-05T02:16:59.431Z,-8.17
2019-02-05T02:19:32.705Z,-8.51
2019-02-05T02:22:05.616Z,-8.60
2019-02-05T02:24:42.494Z,-8.68
2019-02-05T02:27:18.493Z,-8.56
2019-02-05T02:29:55.069Z,-8.45
2019-02-05T02:32:27.846Z,-8.33
2019-02-05T02:35:00.690Z,-8.37
2019-02-05T02:37:33.487Z,-8.54
2019-02-05T02:40:07.192Z,-8.76
2019-02-05T02:42:40.047Z,-8.93
2019-02-05T02:45:14.051Z,-8.90
2019-02-05T02:47:47.008Z,-8.86
2019-02-05T02:50:19.860Z,-8.80
2019-02-05T02:52:53.701Z,-8.69
2019-02-05T02:55:26.626Z,-8.45
2019-02-05T02:57:59.282Z,-8.46
2019-02-05T03:00:32.001Z,-8.36
2019-02-05T03:03:04.912Z,-8.44
2019-02-05T03:05:37.679Z,-8.90
2019-02-05T03:08:10.633Z,-9.13
2019-02-05T03:10:43.420Z,-9.13
2019-02-05T03:13:16.040Z,-9.19
2019-02-05T03:15:48.841Z,-9.10
2019-02-05T03:18:21.584Z,-9.26
2019-02-05T03:20:54.299Z,-9.42
2019-02-05T03:23:26.198Z,-9.36
2019-02-05T03:25:59.273Z,-9.16
2019-02-05T03:28:32.110Z,-8.89
2019-02-05T03:31:05.362Z,-8.76
2019-02-05T03:33:38.112Z,-9.18
2019-02-05T03:36:10.922Z,-9.54
2019-02-05T03:38:43.639Z,-9.41
2019-02-05T03:41:16.384Z,-9.28
2019-02-05T03:43:51.776Z,-9.33
2019-02-05T03:46:25.040Z,-9.64
2019-02-05T03:48:58.266Z,-9.53
2019-02-05T03:52:09.186Z,-9.35
2019-02-05T03:55:24.515Z,-9.28
2019-02-05T04:02:04.290Z,-8.93
2019-02-05T04:05:52.675Z,-9.40
2019-02-05T04:09:08.994Z,-9.84
2019-02-05T04:12:48.559Z,-9.80
2019-02-05T04:16:08.966Z,-9.53
2019-02-05T04:19:19.342Z,-9.47
2019-02-05T04:22:27.049Z,-9.75
2019-02-05T04:25:46.323Z,-9.45
2019-02-05T04:29:15.208Z,-9.16
2019-02-05T04:32:48.538Z,-9.34
2019-02-05T04:36:57.672Z,-9.64
2019-02-05T04:40:23.341Z,-10.06
2019-02-05T04:43:51.728Z,-9.86
2019-02-05T04:47:31.255Z,-9.66
2019-02-05T04:51:05.973Z,-9.74
2019-02-05T04:54:38.641Z,-9.85
2019-02-05T04:57:57.499Z,-9.83
2019-02-05T05:01:28.296Z,-9.69
2019-02-05T05:04:36.343Z,-9.30
2019-02-05T05:08:02.588Z,-9.23
2019-02-05T05:10:35.418Z,-9.93
2019-02-05T05:13:08.101Z,-10.27
2019-02-05T05:15:40.829Z,-10.69
2019-02-05T05:18:15.553Z,-10.69
2019-02-05T05:20:49.066Z,-10.75
2019-02-05T05:23:22.009Z,-10.80
2019-02-05T05:25:55.093Z,-10.75
2019-02-05T05:28:27.815Z,-10.65
2019-02-05T05:31:01.004Z,-10.60
2019-02-05T05:33:33.724Z,-10.34
2019-02-05T05:36:06.585Z,-10.23
2019-02-05T05:38:39.307Z,-10.22
2019-02-05T05:41:12.154Z,-9.97
2019-02-05T05:43:44.934Z,-9.65
2019-02-05T05:46:17.670Z,-9.50
2019-02-05T05:48:50.419Z,-9.71
2019-02-05T05:51:23.183Z,-9.89
2019-02-05T05:53:56.005Z,-10.06
2019-02-05T05:56:28.906Z,-9.90
2019-02-05T05:59:01.795Z,-9.89
2019-02-05T06:01:34.630Z,-10.12
2019-02-05T06:04:07.851Z,-10.31
2019-02-05T06:06:40.734Z,-10.49
2019-02-05T06:09:13.943Z,-10.23
2019-02-05T06:11:46.739Z,-10.05
2019-02-05T06:14:19.488Z,-9.86
2019-02-05T06:16:52.397Z,-9.91
2019-02-05T06:19:25.174Z,-10.23
2019-02-05T06:21:57.913Z,-10.30
2019-02-05T06:24:30.753Z,-10.27
2019-02-05T06:27:03.684Z,-10.19
2019-02-05T06:29:36.365Z,-10.34
2019-02-05T06:32:09.783Z,-10.44
2019-02-05T06:34:42.584Z,-10.63
2019-02-05T06:37:15.511Z,-10.71
2019-02-05T06:39:48.363Z,-10.88
2019-02-05T06:42:21.925Z,-10.78
2019-02-05T06:44:56.179Z,-10.53
2019-02-05T06:47:29.995Z,-10.17
2019-02-05T06:50:02.729Z,-10.08
2019-02-05T06:52:35.678Z,-10.02
2019-02-05T06:55:09.235Z,-10.42
2019-02-05T06:57:42.029Z,-10.60
2019-02-05T07:05:53.821Z,-11.06
2019-02-05T07:08:26.730Z,-11.20
2019-02-05T07:10:59.712Z,-11.25
2019-02-05T07:13:32.583Z,-11.21
2019-02-05T07:16:05.983Z,-11.19
2019-02-05T07:18:38.793Z,-11.12
2019-02-05T07:21:11.675Z,-10.92
2019-02-05T07:23:44.485Z,-10.94
2019-02-05T07:26:17.240Z,-10.84
2019-02-05T07:28:58.184Z,-10.76
2019-02-05T07:31:24.453Z,-10.77
2019-02-05T07:33:57.203Z,-10.69
2019-02-05T08:21:18.270Z,-3.35
2019-02-05T08:23:51.091Z,-2.57
2019-02-05T08:26:23.962Z,-2.62
2019-02-05T08:28:56.541Z,-1.80
2019-02-05T08:31:29.200Z,-1.93
2019-02-05T08:34:03.328Z,-1.54
2019-02-05T08:36:36.247Z,-1.40
2019-02-05T08:39:11.384Z,-1.04
2019-02-05T08:41:44.135Z,-0.32
2019-02-05T08:44:17.279Z,0.66
2019-02-05T08:46:49.876Z,1.17
2019-02-05T08:49:22.552Z,1.78
2019-02-05T08:51:55.356Z,2.72
2019-02-05T08:54:28.052Z,1.79
2019-02-05T08:57:01.157Z,1.94
2019-02-05T08:59:33.813Z,1.98
2019-02-05T09:02:07.250Z,2.61
2019-02-05T09:04:39.972Z,4.10
2019-02-05T09:07:12.606Z,5.03
2019-02-05T09:09:45.769Z,4.99
2019-02-05T09:12:18.479Z,3.78
2019-02-05T09:14:51.184Z,4.44
2019-02-05T09:17:24.411Z,5.87
2019-02-05T09:19:57.299Z,6.91
2019-02-05T09:22:29.956Z,8.21
2019-02-05T09:25:02.740Z,8.70
2019-02-05T09:27:35.325Z,8.72
2019-02-05T09:30:12.674Z,9.07
2019-02-05T09:32:45.330Z,7.50
2019-02-05T09:35:18.323Z,6.49
2019-02-05T09:37:51.133Z,6.71
2019-02-05T09:40:30.530Z,7.62
2019-02-05T09:43:03.309Z,8.25
2019-02-05T09:45:36.151Z,8.87
2019-02-05T09:48:08.780Z,9.40
2019-02-05T09:50:44.623Z,9.99
2019-02-05T09:53:15.848Z,10.08
2019-02-05T09:55:48.620Z,10.81
2019-02-05T09:58:22.886Z,9.60
2019-02-05T10:00:55.623Z,9.23
2019-02-05T10:03:28.283Z,9.47
2019-02-05T10:06:00.944Z,10.01
2019-02-05T10:08:33.675Z,10.96
2019-02-05T10:11:06.848Z,11.63
2019-02-05T10:13:39.549Z,12.64
2019-02-05T10:16:12.352Z,13.59
2019-02-05T10:18:45.951Z,13.75
2019-02-05T10:21:18.899Z,13.41
2019-02-05T10:23:51.955Z,14.33
2019-02-05T10:26:24.672Z,13.74
2019-02-05T10:28:57.381Z,13.77
2019-02-05T10:31:30.178Z,13.32
2019-02-05T10:34:02.895Z,13.28
2019-02-05T10:36:35.853Z,13.39
2019-02-05T10:39:11.284Z,13.73
2019-02-05T10:41:44.352Z,13.80
2019-02-05T10:44:17.239Z,14.22
2019-02-05T10:46:50.036Z,14.31
2019-02-05T10:49:23.079Z,15.11
2019-02-05T10:51:55.889Z,15.38
2019-02-05T10:54:28.923Z,16.06
2019-02-05T10:57:01.582Z,15.50
2019-02-05T10:59:34.380Z,15.38
2019-02-05T11:02:07.268Z,15.24
2019-02-05T11:04:40.191Z,15.81
2019-02-05T11:07:12.931Z,16.19
2019-02-05T11:09:45.898Z,16.70
2019-02-05T11:12:18.698Z,17.00
2019-02-05T11:14:51.461Z,16.31
2019-02-05T11:17:24.243Z,16.16
2019-02-05T11:19:57.032Z,17.72
2019-02-05T11:22:29.750Z,17.15
2019-02-05T11:25:02.586Z,17.25
2019-02-05T11:27:35.347Z,16.06
2019-02-05T11:30:20.331Z,15.85
2019-02-05T11:32:48.053Z,15.51
2019-02-05T11:35:21.178Z,13.54
2019-02-05T11:37:54.877Z,15.35
2019-02-05T11:40:31.434Z,17.63
2019-02-05T11:43:04.331Z,19.11
2019-02-05T11:45:37.362Z,18.47
2019-02-05T11:48:19.101Z,17.29
2019-02-05T11:50:51.876Z,16.93
2019-02-05T11:53:24.659Z,17.33
2019-02-05T11:55:57.497Z,17.82
2019-02-05T11:58:30.532Z,18.51
2019-02-05T12:01:13.903Z,14.70
2019-02-05T12:03:46.878Z,15.17
2019-02-05T12:06:19.689Z,18.35
2019-02-05T12:08:52.355Z,18.59
2019-02-05T12:11:25.100Z,19.63
2019-02-05T12:13:58.050Z,19.42
2019-02-05T12:16:30.797Z,18.33
2019-02-05T12:19:03.603Z,20.05
2019-02-05T12:21:36.353Z,17.41
2019-02-05T12:24:09.051Z,18.58
2019-02-05T12:50:02.046Z,12.02
2019-02-05T12:52:34.755Z,13.91
2019-02-05T12:55:15.860Z,14.43
2019-02-05T12:57:42.355Z,15.04
2019-02-05T13:00:37.208Z,15.69
2019-02-05T13:03:11.557Z,13.42
2019-02-05T13:05:45.596Z,12.07
2019-02-05T13:08:18.352Z,12.61
2019-02-05T13:10:53.393Z,13.37
2019-02-05T13:13:26.210Z,12.07
2019-02-05T13:15:59.280Z,11.73
2019-02-05T13:18:32.011Z,11.15
2019-02-05T13:21:04.840Z,9.84
2019-02-05T13:23:37.413Z,9.62
2019-02-05T13:26:10.514Z,9.43
2019-02-05T13:28:43.480Z,8.93
2019-02-05T13:31:16.218Z,9.81
2019-02-05T13:33:48.894Z,10.68
2019-02-05T13:36:22.773Z,11.09
2019-02-05T13:38:55.730Z,9.85
2019-02-05T13:41:29.160Z,10.94
2019-02-05T13:44:02.190Z,12.59
2019-02-05T13:46:34.953Z,13.43
2019-02-05T13:49:07.721Z,12.67
2019-02-05T13:51:40.846Z,11.10
2019-02-05T13:54:13.694Z,9.87
2019-02-05T13:56:46.506Z,10.31
2019-02-05T13:59:19.272Z,10.36
2019-02-05T14:01:51.962Z,10.16
2019-02-05T14:04:24.735Z,9.27
2019-02-05T14:06:57.464Z,8.68
2019-02-05T14:09:30.143Z,7.98
2019-02-05T14:12:02.845Z,6.23
2019-02-05T14:14:35.506Z,5.05
2019-02-05T14:17:08.299Z,4.54
2019-02-05T14:19:41.907Z,4.36
2019-02-05T14:22:14.824Z,3.94
2019-02-05T14:24:47.489Z,3.31
2019-02-05T14:27:20.402Z,2.57
2019-02-05T14:29:52.968Z,2.41
2019-02-05T19:46:51.987Z,-6.79
2019-02-05T19:49:28.070Z,-6.27
2019-02-05T19:52:00.938Z,-6.75
2019-02-05T19:54:33.675Z,-7.21
2019-02-05T19:57:06.669Z,-7.14
2019-02-05T19:59:39.746Z,-7.13
2019-02-05T20:02:12.831Z,-7.12
2019-02-05T20:04:45.547Z,-7.19
2019-02-05T20:07:18.427Z,-7.09
2019-02-05T20:09:51.382Z,-6.89
2019-02-05T20:12:24.301Z,-6.70
2019-02-05T20:14:57.024Z,-7.26
2019-02-05T20:17:29.928Z,-7.07
2019-02-05T20:20:02.814Z,-6.96
2019-02-05T20:22:35.464Z,-7.33
2019-02-05T20:25:09.429Z,-7.52
2019-02-05T20:27:42.179Z,-7.41
2019-02-05T20:30:17.350Z,-7.27
2019-02-05T20:32:50.104Z,-7.36
2019-02-05T20:35:22.813Z,-7.65
2019-02-05T20:37:55.962Z,-7.86
2019-02-05T20:40:28.918Z,-7.63
2019-02-05T20:43:01.687Z,-7.32
2019-02-05T20:45:35.994Z,-6.98
2019-02-05T20:48:09.522Z,-6.80
2019-02-05T20:50:42.726Z,-6.85
2019-02-05T20:53:15.416Z,-7.33
2019-02-05T20:55:48.247Z,-7.76
2019-02-05T20:58:21.188Z,-7.77
2019-02-05T21:00:53.966Z,-7.64
2019-02-05T21:03:26.862Z,-7.38
2019-02-05T21:05:59.659Z,-7.23
2019-02-05T21:08:32.490Z,-7.45
2019-02-05T21:11:05.925Z,-7.85
2019-02-05T21:13:38.646Z,-7.64
2019-02-05T21:16:11.591Z,-7.86
2019-02-05T21:18:44.354Z,-7.70
2019-02-05T21:21:17.069Z,-7.75
2019-02-05T21:23:50.352Z,-7.86
2019-02-05T21:26:23.083Z,-7.91
2019-02-05T21:28:56.014Z,-7.90
2019-02-05T21:31:28.914Z,-7.77
2019-02-05T21:34:04.121Z,-7.73
2019-02-05T21:36:36.054Z,-7.83
2019-02-05T21:39:12.498Z,-8.06
2019-02-05T21:41:45.392Z,-7.97
2019-02-05T21:44:18.453Z,-8.12
2019-02-05T21:46:51.395Z,-8.48
2019-02-05T21:49:24.093Z,-8.64
2019-02-05T21:51:56.986Z,-8.53
2019-02-05T21:54:29.800Z,-8.33
2019-02-05T21:57:02.478Z,-7.89
2019-02-05T21:59:35.285Z,-7.85
2019-02-05T22:02:07.957Z,-8.04
2019-02-05T22:04:40.939Z,-8.24
2019-02-05T22:07:13.641Z,-8.34
2019-02-05T22:09:46.555Z,-8.44
2019-02-05T22:12:20.201Z,-8.35
2019-02-05T22:14:53.004Z,-8.22
2019-02-05T22:17:26.053Z,-8.13
2019-02-05T22:19:58.865Z,-8.14
2019-02-05T22:22:31.653Z,-8.17
2019-02-05T22:25:06.717Z,-8.25
2019-02-05T22:27:39.479Z,-8.40
2019-02-05T22:30:19.153Z,-8.35
2019-02-05T22:32:51.885Z,-8.24
2019-02-05T22:35:24.978Z,-8.13
2019-02-05T22:37:58.078Z,-8.26
2019-02-05T22:40:30.965Z,-8.09
2019-02-05T22:43:03.795Z,-7.98
2019-02-05T22:45:36.510Z,-8.37
2019-02-05T22:48:09.639Z,-8.25
2019-02-05T22:50:42.493Z,-7.78
2019-02-05T22:53:15.283Z,-7.40
2019-02-05T22:55:48.312Z,-7.76
2019-02-05T22:58:24.081Z,-8.48
2019-02-05T23:01:51.792Z,-8.47
2019-02-05T23:05:26.489Z,-8.62
2019-02-05T23:07:59.162Z,-8.63
2019-02-05T23:11:19.093Z,-8.70
2019-02-05T23:13:51.907Z,-8.60
2019-02-05T23:16:24.779Z,-8.67
2019-02-05T23:18:57.434Z,-8.53
2019-02-05T23:21:30.590Z,-8.59
2019-02-05T23:24:03.614Z,-8.76
2019-02-05T23:26:36.357Z,-8.73
2019-02-05T23:29:09.333Z,-8.69
2019-02-05T23:31:42.312Z,-9.12
2019-02-05T23:34:15.127Z,-9.22
2019-02-05T23:36:48.974Z,-9.21
2019-02-05T23:39:21.708Z,-8.95
2019-02-05T23:41:54.547Z,-8.55
2019-02-05T23:44:27.307Z,-8.48
2019-02-05T23:47:00.665Z,-8.34
2019-02-05T23:49:33.297Z,-8.23
2019-02-05T23:52:06.510Z,-8.04
2019-02-05T23:54:39.349Z,-8.34
2019-02-05T23:57:12.043Z,-8.57
2019-02-05T23:59:44.887Z,-9.11
